Orangeburg Municipal Airport Orangeburg US
ICAO: KOGB
IATA: OGB
Category: Medium
Scheduled Services: No

Elevation: 195 ft
TransAlt. 18000 ft.

Airport Communications:
COLUMBIA APP/DEP:124.15
ASOS:118.525
CTAF/UNICOM:122.7

KOGB Zoom In..

Runways:

(A) RW 05 length 4508 ft width 100 ft
---- / hdg 49

(B) RW 17 length 5399 ft width 100 ft
---- / hdg 174

(C) RW 23 length 4508 ft width 100 ft
---- / hdg 229

(D) RW 35 length 5399 ft width 100 ft
---- / hdg 354

Location; KOGB
Day. 22 / Time. 23.53 Zulu
* Altimeter: 30.02
* Temperature: 19° c. 66.2°f.
* Wind from: 140° Speed 08 kn.
Dewpoint: 14° c.
Visibility: 10 Statute Miles.
Clouds: Scattered 4700 ft.
Clouds: Broken 5500 ft.

KOGB 222353Z AUTO 14008KT 10SM SCT047 BKN055 19/14 A3002 RMK AO2 SLP166 T01890144 10217 20183 58009


Wind From 140°
Speed 08 kn.

YouTube Music Video
 
jpsmedia.com for Web Design  worldairports.se 2018   terms of use